createdAt,value
2022-11-13T00:01:16.256Z,7.10
2022-11-13T00:04:03.268Z,7.10
2022-11-13T00:06:52.673Z,7.10
2022-11-13T00:09:42.685Z,7.00
2022-11-13T00:12:30.593Z,7.00
2022-11-13T00:15:17.261Z,7.00
2022-11-13T00:18:05.485Z,7.00
2022-11-13T00:20:51.741Z,6.90
2022-11-13T00:23:38.929Z,6.90
2022-11-13T00:26:27.737Z,6.90
2022-11-13T00:29:14.240Z,6.90
2022-11-13T00:32:00.609Z,6.90
2022-11-13T00:34:48.819Z,6.90
2022-11-13T00:37:35.521Z,6.90
2022-11-13T00:40:21.927Z,6.90
2022-11-13T00:43:08.426Z,6.90
2022-11-13T00:45:55.381Z,6.90
2022-11-13T00:48:41.814Z,7.00
2022-11-13T00:51:29.721Z,6.90
2022-11-13T00:54:16.481Z,7.00
2022-11-13T00:57:02.866Z,6.90
2022-11-13T00:59:49.414Z,7.00
2022-11-13T01:02:35.881Z,6.90
2022-11-13T01:05:22.456Z,6.90
2022-11-13T01:08:11.464Z,7.00
2022-11-13T01:10:58.061Z,7.00
2022-11-13T01:13:46.081Z,7.00
2022-11-13T01:16:32.697Z,7.00
2022-11-13T01:19:19.136Z,7.00
2022-11-13T01:22:05.520Z,6.90
2022-11-13T01:24:53.221Z,7.00
2022-11-13T01:27:40.517Z,7.10
2022-11-13T01:30:27.189Z,7.00
2022-11-13T01:33:13.829Z,7.00
2022-11-13T01:36:05.174Z,7.00
2022-11-13T01:38:52.632Z,7.00
2022-11-13T01:41:40.951Z,6.90
2022-11-13T01:44:27.472Z,6.90
2022-11-13T01:47:14.197Z,6.90
2022-11-13T01:50:03.608Z,6.90
2022-11-13T01:52:50.276Z,6.90
2022-11-13T01:55:37.079Z,6.90
2022-11-13T01:58:25.465Z,6.90
2022-11-13T02:01:12.478Z,6.90
2022-11-13T02:03:59.263Z,6.90
2022-11-13T02:06:49.139Z,7.00
2022-11-13T02:09:38.837Z,6.90
2022-11-13T02:12:32.069Z,6.90
2022-11-13T02:15:23.707Z,6.90
2022-11-13T02:18:12.023Z,6.90
2022-11-13T02:21:06.580Z,6.90
2022-11-13T02:24:00.253Z,7.00
2022-11-13T02:26:50.584Z,7.10
2022-11-13T02:29:37.383Z,7.00
2022-11-13T02:32:23.724Z,7.00
2022-11-13T02:35:10.448Z,7.00
2022-11-13T02:37:59.365Z,7.00
2022-11-13T02:40:45.827Z,7.00
2022-11-13T02:43:33.644Z,7.00
2022-11-13T02:46:20.168Z,7.00
2022-11-13T02:49:07.626Z,6.90
2022-11-13T02:51:54.344Z,6.80
2022-11-13T02:54:41.049Z,6.80
2022-11-13T02:57:27.636Z,6.70
2022-11-13T03:00:16.452Z,6.70
2022-11-13T03:03:02.752Z,6.70
2022-11-13T03:05:50.604Z,6.70
2022-11-13T03:08:37.618Z,6.80
2022-11-13T03:11:38.016Z,6.80
2022-11-13T03:14:24.676Z,6.80
2022-11-13T03:17:12.395Z,6.80
2022-11-13T03:19:59.458Z,6.80
2022-11-13T03:22:46.196Z,6.80
2022-11-13T03:25:32.666Z,6.80
2022-11-13T03:28:19.002Z,6.80
2022-11-13T03:31:06.016Z,7.00
2022-11-13T03:33:55.372Z,6.90
2022-11-13T03:36:42.110Z,6.80
2022-11-13T03:39:28.475Z,6.80
2022-11-13T03:42:15.049Z,6.80
2022-11-13T03:45:01.377Z,6.70
2022-11-13T03:47:49.248Z,6.70
2022-11-13T03:50:40.337Z,6.70
2022-11-13T03:53:29.597Z,6.60
2022-11-13T03:56:16.039Z,6.60
2022-11-13T03:59:02.355Z,6.60
2022-11-13T04:01:48.898Z,6.60
2022-11-13T04:04:35.532Z,6.50
2022-11-13T04:07:23.132Z,6.50
2022-11-13T04:10:10.201Z,6.50
2022-11-13T04:12:56.554Z,6.50
2022-11-13T04:15:43.000Z,6.50
2022-11-13T04:18:29.791Z,6.50
2022-11-13T04:21:17.068Z,6.50
2022-11-13T04:24:05.163Z,6.50
2022-11-13T04:26:51.532Z,6.50
2022-11-13T04:29:37.860Z,6.50
2022-11-13T04:32:24.483Z,6.50
2022-11-13T04:35:11.432Z,6.50
2022-11-13T04:37:57.960Z,6.50
2022-11-13T04:40:45.607Z,6.50
2022-11-13T04:43:31.302Z,6.50
2022-11-13T04:46:17.733Z,6.50
2022-11-13T04:49:04.131Z,6.40
2022-11-13T04:51:50.546Z,6.50
2022-11-13T04:54:36.970Z,6.50
2022-11-13T04:57:24.747Z,6.50
2022-11-13T05:00:12.289Z,6.60
2022-11-13T05:02:58.744Z,6.50
2022-11-13T05:05:45.360Z,6.50
2022-11-13T05:08:31.824Z,6.50
2022-11-13T05:11:18.249Z,6.60
2022-11-13T05:14:07.634Z,6.50
2022-11-13T05:16:54.215Z,6.40
2022-11-13T05:19:40.709Z,6.40
2022-11-13T05:22:27.141Z,6.40
2022-11-13T05:25:13.552Z,6.40
2022-11-13T05:28:00.117Z,6.40
2022-11-13T05:30:47.903Z,6.40
2022-11-13T05:33:34.530Z,6.30
2022-11-13T05:36:22.287Z,6.40
2022-11-13T05:39:09.024Z,6.30
2022-11-13T05:41:55.648Z,6.30
2022-11-13T05:44:41.980Z,6.30
2022-11-13T05:47:29.765Z,6.30
2022-11-13T05:50:16.877Z,6.30
2022-11-13T05:53:03.367Z,6.20
2022-11-13T05:55:49.776Z,6.30
2022-11-13T05:58:36.739Z,6.20
2022-11-13T06:01:25.297Z,6.10
2022-11-13T06:04:13.486Z,6.10
2022-11-13T06:07:00.187Z,6.10
2022-11-13T06:09:46.924Z,6.10
2022-11-13T06:12:33.352Z,6.10
2022-11-13T06:15:19.937Z,6.00
2022-11-13T06:18:06.444Z,6.00
2022-11-13T06:20:54.548Z,6.00
2022-11-13T06:23:42.483Z,6.00
2022-11-13T06:26:31.468Z,6.00
2022-11-13T06:29:17.748Z,6.00
2022-11-13T06:32:04.305Z,5.90
2022-11-13T06:34:50.963Z,5.90
2022-11-13T06:37:38.756Z,6.00
2022-11-13T06:40:25.500Z,5.90
2022-11-13T06:43:12.253Z,5.90
2022-11-13T06:45:59.476Z,5.90
2022-11-13T06:48:46.519Z,5.90
2022-11-13T06:51:33.202Z,5.90
2022-11-13T06:54:21.119Z,5.90
2022-11-13T06:57:07.690Z,5.80
2022-11-13T06:59:54.015Z,5.80
2022-11-13T07:02:40.324Z,5.80
2022-11-13T07:05:27.289Z,5.80
2022-11-13T07:08:14.580Z,5.80
2022-11-13T07:11:02.341Z,5.70
2022-11-13T07:13:49.846Z,5.80
2022-11-13T07:17:04.191Z,5.80
2022-11-13T07:19:42.801Z,5.80
2022-11-13T07:22:30.525Z,5.80
2022-11-13T07:25:16.898Z,5.90
2022-11-13T07:28:05.296Z,5.90
2022-11-13T07:30:52.101Z,6.00
2022-11-13T07:33:38.901Z,6.00
2022-11-13T07:36:25.361Z,6.00
2022-11-13T07:39:11.721Z,6.10
2022-11-13T07:41:58.129Z,6.10
2022-11-13T07:44:54.698Z,6.10
2022-11-13T07:47:42.333Z,6.10
2022-11-13T07:50:29.957Z,6.20
2022-11-13T07:53:17.089Z,6.30
2022-11-13T07:56:04.489Z,6.30
2022-11-13T07:58:51.203Z,6.30
2022-11-13T08:01:39.488Z,6.40
2022-11-13T08:04:26.441Z,6.50
2022-11-13T08:07:13.678Z,6.50
2022-11-13T08:10:00.473Z,6.40
2022-11-13T08:12:47.608Z,6.50
2022-11-13T08:15:35.316Z,6.70
2022-11-13T08:18:23.145Z,6.70
2022-11-13T08:21:14.647Z,6.80
2022-11-13T08:24:01.939Z,7.00
2022-11-13T08:26:48.452Z,7.20
2022-11-13T08:29:37.196Z,7.30
2022-11-13T08:32:24.107Z,7.50
2022-11-13T08:35:16.049Z,7.70
2022-11-13T08:38:07.327Z,7.80
2022-11-13T08:40:57.299Z,8.00
2022-11-13T08:43:43.938Z,8.10
2022-11-13T08:46:30.438Z,8.30
2022-11-13T08:49:17.038Z,8.60
2022-11-13T08:52:05.260Z,8.70
2022-11-13T08:54:51.848Z,9.00
2022-11-13T08:57:40.302Z,9.10
2022-11-13T09:00:26.755Z,9.30
2022-11-13T09:03:13.531Z,9.30
2022-11-13T09:06:00.304Z,9.40
2022-11-13T09:08:48.109Z,9.30
2022-11-13T09:11:35.202Z,9.40
2022-11-13T09:14:21.813Z,9.60
2022-11-13T09:17:08.570Z,9.50
2022-11-13T09:19:54.946Z,9.40
2022-11-13T09:22:41.310Z,9.40
2022-11-13T09:25:34.293Z,9.30
2022-11-13T09:28:24.170Z,9.50
2022-11-13T09:31:11.183Z,9.60
2022-11-13T09:33:57.672Z,9.80
2022-11-13T09:36:44.159Z,9.90
2022-11-13T09:39:30.523Z,9.90
2022-11-13T09:42:21.520Z,10.30
2022-11-13T09:45:13.294Z,10.60
2022-11-13T09:48:09.143Z,10.70
2022-11-13T09:50:57.014Z,10.80
2022-11-13T09:53:43.827Z,10.80
2022-11-13T09:56:34.692Z,10.70
2022-11-13T09:59:29.977Z,10.80
2022-11-13T10:02:31.908Z,10.80
2022-11-13T10:05:26.448Z,10.90
2022-11-13T10:08:17.827Z,10.80
2022-11-13T10:11:16.125Z,11.00
2022-11-13T10:14:09.145Z,11.30
2022-11-13T10:17:00.406Z,11.30
2022-11-13T10:19:56.439Z,11.50
2022-11-13T10:22:49.509Z,11.50
2022-11-13T10:25:39.114Z,11.70
2022-11-13T10:28:49.482Z,11.80
2022-11-13T10:31:43.631Z,11.90
2022-11-13T10:34:33.167Z,11.90
2022-11-13T10:37:29.916Z,11.90
2022-11-13T10:40:25.372Z,11.70
2022-11-13T10:43:16.380Z,11.90
2022-11-13T10:46:04.529Z,11.80
2022-11-13T10:48:51.700Z,12.00
2022-11-13T10:51:40.601Z,12.00
2022-11-13T10:54:30.491Z,11.80
2022-11-13T10:57:26.452Z,11.80
2022-11-13T11:00:24.871Z,11.60
2022-11-13T11:03:16.856Z,11.80
2022-11-13T11:06:05.467Z,11.90
2022-11-13T11:08:53.483Z,11.90
2022-11-13T11:11:58.360Z,11.90
2022-11-13T11:15:01.072Z,11.90
2022-11-13T11:17:50.402Z,11.70
2022-11-13T11:20:48.836Z,11.50
2022-11-13T11:23:41.465Z,11.30
2022-11-13T11:26:34.933Z,11.50
2022-11-13T11:29:27.777Z,11.60
2022-11-13T11:32:20.317Z,11.70
2022-11-13T11:35:14.444Z,11.80
2022-11-13T11:38:08.507Z,11.60
2022-11-13T11:41:03.098Z,11.40
2022-11-13T11:44:01.916Z,11.30
2022-11-13T11:46:48.384Z,11.40
2022-11-13T11:49:34.977Z,11.50
2022-11-13T11:52:33.405Z,11.50
2022-11-13T11:55:35.238Z,11.60
2022-11-13T11:58:36.620Z,11.50
2022-11-13T12:01:36.854Z,11.40
2022-11-13T12:04:47.493Z,11.30
2022-11-13T12:07:42.167Z,11.10
2022-11-13T12:10:36.519Z,10.80
2022-11-13T12:13:29.917Z,10.70
2022-11-13T12:16:25.045Z,10.50
2022-11-13T12:19:23.260Z,10.40
2022-11-13T12:22:17.664Z,10.40
2022-11-13T12:25:16.421Z,10.50
2022-11-13T12:28:11.989Z,10.50
2022-11-13T12:31:08.254Z,10.50
2022-11-13T12:34:06.249Z,10.40
2022-11-13T12:36:55.701Z,10.30
2022-11-13T12:39:50.241Z,10.10
2022-11-13T12:42:43.101Z,10.10
2022-11-13T12:45:51.836Z,10.10
2022-11-13T12:48:42.002Z,10.10
2022-11-13T12:51:40.329Z,10.10
2022-11-13T12:54:29.520Z,10.00
2022-11-13T12:57:25.823Z,9.80
2022-11-13T13:00:26.569Z,9.60
2022-11-13T13:03:38.192Z,9.60
2022-11-13T13:06:41.537Z,9.50
2022-11-13T13:09:44.142Z,9.50
2022-11-13T13:12:43.089Z,9.40
2022-11-13T13:15:34.010Z,9.40
2022-11-13T13:18:28.881Z,9.30
2022-11-13T13:21:17.658Z,9.10
2022-11-13T13:24:09.959Z,9.20
2022-11-13T13:26:58.472Z,9.10
2022-11-13T13:29:44.849Z,9.10
2022-11-13T13:32:39.672Z,8.90
2022-11-13T13:35:31.626Z,9.00
2022-11-13T13:38:24.990Z,9.10
2022-11-13T13:41:19.809Z,9.10
2022-11-13T13:44:36.788Z,9.20
2022-11-13T13:47:28.020Z,9.10
2022-11-13T13:50:18.809Z,9.10
2022-11-13T13:53:05.600Z,9.20
2022-11-13T13:55:55.317Z,9.10
2022-11-13T13:58:42.608Z,9.10
2022-11-13T14:01:32.297Z,9.10
2022-11-13T14:04:21.150Z,9.00
2022-11-13T14:07:21.373Z,9.00
2022-11-13T14:10:15.472Z,9.00
2022-11-13T14:13:02.006Z,8.90
2022-11-13T14:15:48.447Z,8.90
2022-11-13T14:18:37.113Z,8.90
2022-11-13T14:21:25.015Z,8.90
2022-11-13T14:24:17.826Z,8.90
2022-11-13T14:27:08.192Z,8.80
2022-11-13T14:29:57.925Z,8.70
2022-11-13T14:32:47.329Z,8.70
2022-11-13T14:35:36.829Z,8.70
2022-11-13T14:38:26.299Z,8.70
2022-11-13T14:41:22.581Z,8.70
2022-11-13T14:44:12.512Z,8.70
2022-11-13T14:47:02.705Z,8.70
2022-11-13T14:49:49.007Z,8.80
2022-11-13T14:52:36.880Z,8.70
2022-11-13T14:55:25.329Z,8.70
2022-11-13T14:58:14.760Z,8.70
2022-11-13T15:01:12.617Z,8.80
2022-11-13T15:03:59.502Z,8.80
2022-11-13T15:06:46.256Z,8.80
2022-11-13T15:09:35.346Z,8.80
2022-11-13T15:12:21.917Z,8.80
2022-11-13T15:15:14.336Z,8.80
2022-11-13T15:18:03.196Z,8.80
2022-11-13T15:20:51.067Z,8.70
2022-11-13T15:23:37.737Z,8.80
2022-11-13T15:26:25.827Z,8.90
2022-11-13T15:29:12.733Z,8.80
2022-11-13T15:31:59.416Z,8.80
2022-11-13T15:34:45.858Z,8.80
2022-11-13T15:37:32.284Z,8.80
2022-11-13T15:40:19.123Z,8.90
2022-11-13T15:43:06.922Z,8.80
2022-11-13T15:45:53.697Z,8.90
2022-11-13T15:48:40.104Z,8.80
2022-11-13T15:51:32.947Z,8.80
2022-11-13T15:54:26.405Z,8.80
2022-11-13T15:57:19.164Z,8.80
2022-11-13T16:00:15.319Z,8.80
2022-11-13T16:03:04.682Z,8.80
2022-11-13T16:05:51.429Z,8.80
2022-11-13T16:08:38.546Z,8.80
2022-11-13T16:11:25.619Z,8.80
2022-11-13T16:14:12.225Z,8.80
2022-11-13T16:17:00.169Z,8.80
2022-11-13T16:19:48.233Z,8.80
2022-11-13T16:22:35.048Z,8.80
2022-11-13T16:25:23.218Z,8.80
2022-11-13T16:28:15.356Z,8.70
2022-11-13T16:31:02.079Z,8.80
2022-11-13T16:33:50.381Z,8.80
2022-11-13T16:36:36.940Z,8.80
2022-11-13T16:39:23.261Z,8.80
2022-11-13T16:42:10.084Z,8.80
2022-11-13T16:44:56.740Z,8.80
2022-11-13T16:47:43.141Z,8.80
2022-11-13T16:50:32.907Z,8.80
2022-11-13T16:53:19.601Z,8.80
2022-11-13T16:56:13.972Z,8.80
2022-11-13T16:59:00.449Z,8.80
2022-11-13T17:01:47.364Z,8.90
2022-11-13T17:04:34.046Z,8.80
2022-11-13T17:07:22.462Z,8.80
2022-11-13T17:13:18.955Z,8.80
2022-11-13T17:16:05.788Z,8.80
2022-11-13T17:18:53.326Z,8.70
2022-11-13T17:21:43.944Z,8.70
2022-11-13T17:24:32.925Z,8.80
2022-11-13T17:27:19.474Z,8.80
2022-11-13T17:30:07.475Z,8.80
2022-11-13T17:32:54.328Z,8.80
2022-11-13T17:35:40.975Z,8.80
2022-11-13T17:38:28.978Z,8.70
2022-11-13T17:41:17.667Z,8.80
2022-11-13T17:44:04.382Z,8.80
2022-11-13T17:46:51.946Z,8.70
2022-11-13T17:49:38.843Z,8.70
2022-11-13T17:52:25.329Z,8.70
2022-11-13T17:55:13.882Z,8.80
2022-11-13T17:58:02.547Z,8.80
2022-11-13T18:00:49.247Z,8.80
2022-11-13T18:03:35.964Z,8.80
2022-11-13T18:06:23.090Z,8.80
2022-11-13T18:09:09.702Z,8.80
2022-11-13T18:11:56.388Z,8.80
2022-11-13T18:14:44.131Z,8.80
2022-11-13T18:17:30.744Z,8.80
2022-11-13T18:20:17.675Z,8.80
2022-11-13T18:23:04.109Z,8.80
2022-11-13T18:25:50.712Z,8.80
2022-11-13T18:28:37.487Z,8.90
2022-11-13T18:31:25.824Z,8.90
2022-11-13T18:34:17.547Z,9.00
2022-11-13T18:37:04.261Z,8.90
2022-11-13T18:39:51.125Z,9.00
2022-11-13T18:42:37.796Z,9.00
2022-11-13T18:45:24.259Z,9.00
2022-11-13T18:48:12.024Z,9.00
2022-11-13T18:50:59.623Z,9.00
2022-11-13T18:53:48.301Z,9.00
2022-11-13T18:56:34.681Z,8.90
2022-11-13T18:59:21.200Z,8.90
2022-11-13T19:02:07.977Z,9.00
2022-11-13T19:04:56.345Z,9.00
2022-11-13T19:07:43.704Z,9.00
2022-11-13T19:10:30.102Z,9.00
2022-11-13T19:13:16.444Z,9.00
2022-11-13T19:16:07.074Z,9.00
2022-11-13T19:18:55.094Z,9.00
2022-11-13T19:21:43.358Z,9.00
2022-11-13T19:24:29.788Z,9.00
2022-11-13T19:27:16.309Z,9.00
2022-11-13T19:30:02.614Z,9.00
2022-11-13T19:32:49.209Z,9.00
2022-11-13T19:35:37.214Z,9.10
2022-11-13T19:38:25.629Z,9.10
2022-11-13T19:41:13.420Z,9.10
2022-11-13T19:44:00.533Z,9.10
2022-11-13T19:46:47.913Z,9.10
2022-11-13T19:49:35.225Z,9.10
2022-11-13T19:52:21.894Z,9.10
2022-11-13T19:55:12.703Z,9.10
2022-11-13T19:57:59.487Z,9.10
2022-11-13T20:00:45.968Z,9.10
2022-11-13T20:03:32.287Z,9.20
2022-11-13T20:06:18.753Z,9.10
2022-11-13T20:09:05.736Z,9.20
2022-11-13T20:11:53.564Z,9.10
2022-11-13T20:14:40.059Z,9.10
2022-11-13T20:17:27.354Z,9.10
2022-11-13T20:20:14.060Z,9.10
2022-11-13T20:23:00.955Z,9.10
2022-11-13T20:25:53.675Z,9.20
2022-11-13T20:28:41.912Z,9.20
2022-11-13T20:31:29.929Z,9.20
2022-11-13T20:34:18.034Z,9.20
2022-11-13T20:37:04.773Z,9.20
2022-11-13T20:39:51.934Z,9.20
2022-11-13T20:42:38.330Z,9.10
2022-11-13T20:45:26.190Z,9.20
2022-11-13T20:48:13.050Z,9.20
2022-11-13T20:51:06.476Z,9.10
2022-11-13T20:53:53.874Z,9.10
2022-11-13T20:56:40.374Z,9.10
2022-11-13T20:59:26.979Z,9.20
2022-11-13T21:02:14.793Z,9.20
2022-11-13T21:05:01.162Z,9.10
2022-11-13T21:07:47.727Z,9.20
2022-11-13T21:10:34.829Z,9.20
2022-11-13T21:13:21.290Z,9.30
2022-11-13T21:16:09.630Z,9.20
2022-11-13T21:18:59.002Z,9.20
2022-11-13T21:21:45.656Z,9.30
2022-11-13T21:24:31.992Z,9.20
2022-11-13T21:27:18.546Z,9.30
2022-11-13T21:30:05.700Z,9.30
2022-11-13T21:32:52.358Z,9.30
2022-11-13T21:35:40.347Z,9.30
2022-11-13T21:38:27.384Z,9.40
2022-11-13T21:41:24.824Z,9.40
2022-11-13T21:44:12.025Z,9.40
2022-11-13T21:46:58.950Z,9.40
2022-11-13T21:49:45.744Z,9.30
2022-11-13T21:52:33.655Z,9.30
2022-11-13T21:55:20.065Z,9.30
2022-11-13T21:58:06.521Z,9.30
2022-11-13T22:00:53.112Z,9.30
2022-11-13T22:03:40.245Z,9.40
2022-11-13T22:06:28.462Z,9.40
2022-11-13T22:09:18.347Z,9.30
2022-11-13T22:12:04.959Z,9.40
2022-11-13T22:14:51.432Z,9.40
2022-11-13T22:17:38.089Z,9.40
2022-11-13T22:20:24.666Z,9.30
2022-11-13T22:23:11.366Z,9.40
2022-11-13T22:26:04.341Z,9.50
2022-11-13T22:28:51.621Z,9.40
2022-11-13T22:31:39.541Z,9.30
2022-11-13T22:34:26.449Z,9.30
2022-11-13T22:37:13.011Z,9.20
2022-11-13T22:39:59.392Z,9.30
2022-11-13T22:42:47.329Z,9.30
2022-11-13T22:45:34.778Z,9.20
2022-11-13T22:48:21.601Z,9.20
2022-11-13T22:51:10.407Z,9.20
2022-11-13T22:53:59.777Z,9.20
2022-11-13T22:56:46.525Z,9.20
2022-11-13T22:59:34.232Z,9.10
2022-11-13T23:02:20.812Z,9.10
2022-11-13T23:05:07.739Z,9.10
2022-11-13T23:07:54.510Z,9.10
2022-11-13T23:10:41.285Z,9.00
2022-11-13T23:13:27.621Z,9.00
2022-11-13T23:16:15.728Z,9.00
2022-11-13T23:19:03.198Z,8.90
2022-11-13T23:21:50.015Z,8.90
2022-11-13T23:24:36.432Z,8.90
2022-11-13T23:27:22.837Z,8.90
2022-11-13T23:30:10.863Z,8.90
2022-11-13T23:32:58.700Z,8.90
2022-11-13T23:35:45.192Z,8.80
2022-11-13T23:38:32.055Z,8.80
2022-11-13T23:41:18.904Z,8.80
2022-11-13T23:44:09.917Z,8.80
2022-11-13T23:46:56.403Z,8.80
2022-11-13T23:49:44.352Z,8.80
2022-11-13T23:52:30.828Z,8.80
2022-11-13T23:55:18.620Z,8.80
2022-11-13T23:58:06.773Z,8.80
